sensor_id;sensor_type;location;lat;lon;timestamp;P1;durP1;ratioP1;P2;durP2;ratioP2
14688;SDS011;7432;48.728;9.154;2023-06-14T00:01:36;7.60;;;6.90;;
14688;SDS011;7432;48.728;9.154;2023-06-14T00:04:03;8.10;;;7.30;;
14688;SDS011;7432;48.728;9.154;2023-06-14T00:06:30;7.40;;;6.53;;
14688;SDS011;7432;48.728;9.154;2023-06-14T00:09:00;7.10;;;6.60;;
14688;SDS011;7432;48.728;9.154;2023-06-14T00:11:26;6.90;;;6.40;;
14688;SDS011;7432;48.728;9.154;2023-06-14T00:13:53;7.83;;;7.27;;
14688;SDS011;7432;48.728;9.154;2023-06-14T00:16:19;8.10;;;7.17;;
14688;SDS011;7432;48.728;9.154;2023-06-14T00:18:46;8.03;;;7.23;;
14688;SDS011;7432;48.728;9.154;2023-06-14T00:21:12;7.90;;;7.20;;
14688;SDS011;7432;48.728;9.154;2023-06-14T00:23:39;7.90;;;7.23;;
14688;SDS011;7432;48.728;9.154;2023-06-14T00:26:07;7.27;;;6.57;;
14688;SDS011;7432;48.728;9.154;2023-06-14T00:28:33;7.63;;;6.87;;
14688;SDS011;7432;48.728;9.154;2023-06-14T00:30:59;7.70;;;6.87;;
14688;SDS011;7432;48.728;9.154;2023-06-14T00:33:26;7.73;;;7.13;;
14688;SDS011;7432;48.728;9.154;2023-06-14T00:35:52;8.73;;;7.93;;
14688;SDS011;7432;48.728;9.154;2023-06-14T00:38:19;7.90;;;7.10;;
14688;SDS011;7432;48.728;9.154;2023-06-14T00:40:46;8.07;;;7.37;;
14688;SDS011;7432;48.728;9.154;2023-06-14T00:43:13;7.77;;;7.00;;
14688;SDS011;7432;48.728;9.154;2023-06-14T00:45:40;7.90;;;7.20;;
14688;SDS011;7432;48.728;9.154;2023-06-14T00:48:06;7.63;;;6.93;;
14688;SDS011;7432;48.728;9.154;2023-06-14T00:50:34;8.60;;;7.30;;
14688;SDS011;7432;48.728;9.154;2023-06-14T00:53:01;7.97;;;7.20;;
14688;SDS011;7432;48.728;9.154;2023-06-14T00:55:28;6.80;;;6.23;;
14688;SDS011;7432;48.728;9.154;2023-06-14T00:57:54;7.53;;;6.70;;
14688;SDS011;7432;48.728;9.154;2023-06-14T01:00:22;7.67;;;6.97;;
14688;SDS011;7432;48.728;9.154;2023-06-14T01:02:49;8.00;;;7.30;;
14688;SDS011;7432;48.728;9.154;2023-06-14T01:05:15;7.63;;;6.90;;
14688;SDS011;7432;48.728;9.154;2023-06-14T01:07:46;8.40;;;7.33;;
14688;SDS011;7432;48.728;9.154;2023-06-14T01:10:26;7.60;;;7.00;;
14688;SDS011;7432;48.728;9.154;2023-06-14T01:13:02;7.83;;;7.23;;
14688;SDS011;7432;48.728;9.154;2023-06-14T01:15:37;7.93;;;7.33;;
14688;SDS011;7432;48.728;9.154;2023-06-14T01:18:05;8.03;;;7.33;;
14688;SDS011;7432;48.728;9.154;2023-06-14T01:20:32;8.30;;;7.60;;
14688;SDS011;7432;48.728;9.154;2023-06-14T01:23:03;8.53;;;7.80;;
14688;SDS011;7432;48.728;9.154;2023-06-14T01:25:29;8.17;;;7.47;;
14688;SDS011;7432;48.728;9.154;2023-06-14T01:27:57;8.50;;;7.80;;
14688;SDS011;7432;48.728;9.154;2023-06-14T01:30:26;7.33;;;6.80;;
14688;SDS011;7432;48.728;9.154;2023-06-14T01:32:53;7.93;;;7.20;;
14688;SDS011;7432;48.728;9.154;2023-06-14T01:35:21;8.23;;;7.57;;
14688;SDS011;7432;48.728;9.154;2023-06-14T01:37:48;8.57;;;7.80;;
14688;SDS011;7432;48.728;9.154;2023-06-14T01:40:17;8.30;;;7.70;;
14688;SDS011;7432;48.728;9.154;2023-06-14T01:42:44;8.67;;;7.27;;
14688;SDS011;7432;48.728;9.154;2023-06-14T01:45:13;8.60;;;7.77;;
14688;SDS011;7432;48.728;9.154;2023-06-14T01:47:41;8.93;;;8.03;;
14688;SDS011;7432;48.728;9.154;2023-06-14T01:50:08;7.70;;;7.00;;
14688;SDS011;7432;48.728;9.154;2023-06-14T01:52:36;7.70;;;7.00;;
14688;SDS011;7432;48.728;9.154;2023-06-14T01:55:02;8.60;;;7.93;;
14688;SDS011;7432;48.728;9.154;2023-06-14T01:57:31;8.27;;;7.57;;
14688;SDS011;7432;48.728;9.154;2023-06-14T01:59:57;8.20;;;7.40;;
14688;SDS011;7432;48.728;9.154;2023-06-14T02:02:23;8.63;;;7.80;;
14688;SDS011;7432;48.728;9.154;2023-06-14T02:04:50;8.00;;;7.20;;
14688;SDS011;7432;48.728;9.154;2023-06-14T02:07:17;8.57;;;7.80;;
14688;SDS011;7432;48.728;9.154;2023-06-14T02:09:43;8.57;;;7.77;;
14688;SDS011;7432;48.728;9.154;2023-06-14T02:12:10;7.90;;;7.20;;
14688;SDS011;7432;48.728;9.154;2023-06-14T02:14:38;8.30;;;7.70;;
14688;SDS011;7432;48.728;9.154;2023-06-14T02:17:04;8.03;;;7.43;;
14688;SDS011;7432;48.728;9.154;2023-06-14T02:19:31;8.20;;;7.60;;
14688;SDS011;7432;48.728;9.154;2023-06-14T02:21:57;8.03;;;7.37;;
14688;SDS011;7432;48.728;9.154;2023-06-14T02:24:24;7.77;;;7.10;;
14688;SDS011;7432;48.728;9.154;2023-06-14T02:26:50;9.07;;;8.27;;
14688;SDS011;7432;48.728;9.154;2023-06-14T02:29:17;7.97;;;7.30;;
14688;SDS011;7432;48.728;9.154;2023-06-14T02:31:44;8.53;;;7.73;;
14688;SDS011;7432;48.728;9.154;2023-06-14T02:34:12;8.17;;;7.57;;
14688;SDS011;7432;48.728;9.154;2023-06-14T02:36:38;7.90;;;7.30;;
14688;SDS011;7432;48.728;9.154;2023-06-14T02:39:06;8.23;;;7.53;;
14688;SDS011;7432;48.728;9.154;2023-06-14T02:41:34;8.50;;;7.90;;
14688;SDS011;7432;48.728;9.154;2023-06-14T02:44:00;8.40;;;7.40;;
14688;SDS011;7432;48.728;9.154;2023-06-14T02:46:27;8.07;;;7.37;;
14688;SDS011;7432;48.728;9.154;2023-06-14T02:48:54;8.67;;;7.97;;
14688;SDS011;7432;48.728;9.154;2023-06-14T02:51:21;8.37;;;7.77;;
14688;SDS011;7432;48.728;9.154;2023-06-14T02:53:47;8.53;;;7.77;;
14688;SDS011;7432;48.728;9.154;2023-06-14T02:56:14;9.03;;;8.20;;
14688;SDS011;7432;48.728;9.154;2023-06-14T02:58:42;7.93;;;7.30;;
14688;SDS011;7432;48.728;9.154;2023-06-14T03:01:09;7.80;;;7.20;;
14688;SDS011;7432;48.728;9.154;2023-06-14T03:03:39;8.73;;;7.93;;
14688;SDS011;7432;48.728;9.154;2023-06-14T03:06:06;8.60;;;7.90;;
14688;SDS011;7432;48.728;9.154;2023-06-14T03:08:34;9.13;;;8.33;;
14688;SDS011;7432;48.728;9.154;2023-06-14T03:11:03;9.50;;;8.60;;
14688;SDS011;7432;48.728;9.154;2023-06-14T03:13:31;8.70;;;8.10;;
14688;SDS011;7432;48.728;9.154;2023-06-14T03:15:58;8.87;;;8.17;;
14688;SDS011;7432;48.728;9.154;2023-06-14T03:18:27;8.20;;;7.57;;
14688;SDS011;7432;48.728;9.154;2023-06-14T03:20:54;9.20;;;8.50;;
14688;SDS011;7432;48.728;9.154;2023-06-14T03:23:23;9.27;;;8.47;;
14688;SDS011;7432;48.728;9.154;2023-06-14T03:25:50;8.23;;;7.53;;
14688;SDS011;7432;48.728;9.154;2023-06-14T03:28:16;9.30;;;8.50;;
14688;SDS011;7432;48.728;9.154;2023-06-14T03:30:43;8.97;;;8.30;;
14688;SDS011;7432;48.728;9.154;2023-06-14T03:33:09;9.00;;;8.13;;
14688;SDS011;7432;48.728;9.154;2023-06-14T03:35:35;9.30;;;8.50;;
14688;SDS011;7432;48.728;9.154;2023-06-14T03:38:02;8.37;;;7.83;;
14688;SDS011;7432;48.728;9.154;2023-06-14T03:40:30;8.33;;;7.73;;
14688;SDS011;7432;48.728;9.154;2023-06-14T03:42:56;8.73;;;8.10;;
14688;SDS011;7432;48.728;9.154;2023-06-14T03:45:23;8.83;;;8.07;;
14688;SDS011;7432;48.728;9.154;2023-06-14T03:47:49;8.73;;;8.03;;
14688;SDS011;7432;48.728;9.154;2023-06-14T03:50:16;9.00;;;8.10;;
14688;SDS011;7432;48.728;9.154;2023-06-14T03:52:44;8.57;;;7.97;;
14688;SDS011;7432;48.728;9.154;2023-06-14T03:55:11;8.07;;;7.40;;
14688;SDS011;7432;48.728;9.154;2023-06-14T03:57:40;8.70;;;8.00;;
14688;SDS011;7432;48.728;9.154;2023-06-14T04:00:07;7.50;;;7.00;;
14688;SDS011;7432;48.728;9.154;2023-06-14T04:02:34;8.80;;;8.10;;
14688;SDS011;7432;48.728;9.154;2023-06-14T04:05:02;9.47;;;8.80;;
14688;SDS011;7432;48.728;9.154;2023-06-14T04:07:28;9.03;;;8.33;;
14688;SDS011;7432;48.728;9.154;2023-06-14T04:09:55;9.07;;;8.30;;
14688;SDS011;7432;48.728;9.154;2023-06-14T04:12:21;8.80;;;7.70;;
14688;SDS011;7432;48.728;9.154;2023-06-14T04:14:49;8.53;;;7.80;;
14688;SDS011;7432;48.728;9.154;2023-06-14T04:17:16;8.83;;;8.13;;
14688;SDS011;7432;48.728;9.154;2023-06-14T04:19:42;9.63;;;8.93;;
14688;SDS011;7432;48.728;9.154;2023-06-14T04:22:09;9.20;;;8.50;;
14688;SDS011;7432;48.728;9.154;2023-06-14T04:24:36;8.90;;;8.13;;
14688;SDS011;7432;48.728;9.154;2023-06-14T04:27:02;8.67;;;7.87;;
14688;SDS011;7432;48.728;9.154;2023-06-14T04:29:29;8.80;;;8.00;;
14688;SDS011;7432;48.728;9.154;2023-06-14T04:31:57;8.83;;;8.03;;
14688;SDS011;7432;48.728;9.154;2023-06-14T04:34:25;9.33;;;8.53;;
14688;SDS011;7432;48.728;9.154;2023-06-14T04:36:54;9.70;;;8.90;;
14688;SDS011;7432;48.728;9.154;2023-06-14T04:39:21;8.40;;;7.80;;
14688;SDS011;7432;48.728;9.154;2023-06-14T04:41:48;9.50;;;8.30;;
14688;SDS011;7432;48.728;9.154;2023-06-14T04:44:17;8.50;;;7.70;;
14688;SDS011;7432;48.728;9.154;2023-06-14T04:46:44;9.10;;;8.20;;
14688;SDS011;7432;48.728;9.154;2023-06-14T04:49:13;8.67;;;7.97;;
14688;SDS011;7432;48.728;9.154;2023-06-14T04:51:40;9.47;;;8.77;;
14688;SDS011;7432;48.728;9.154;2023-06-14T04:54:07;10.03;;;9.03;;
14688;SDS011;7432;48.728;9.154;2023-06-14T04:56:35;9.13;;;8.47;;
14688;SDS011;7432;48.728;9.154;2023-06-14T04:59:02;9.07;;;8.37;;
14688;SDS011;7432;48.728;9.154;2023-06-14T05:01:29;9.90;;;9.10;;
14688;SDS011;7432;48.728;9.154;2023-06-14T05:03:56;9.30;;;8.60;;
14688;SDS011;7432;48.728;9.154;2023-06-14T05:06:24;8.83;;;8.23;;
14688;SDS011;7432;48.728;9.154;2023-06-14T05:08:51;9.67;;;8.87;;
14688;SDS011;7432;48.728;9.154;2023-06-14T05:11:17;9.10;;;8.30;;
14688;SDS011;7432;48.728;9.154;2023-06-14T05:13:44;9.13;;;8.33;;
14688;SDS011;7432;48.728;9.154;2023-06-14T05:16:10;9.33;;;8.43;;
14688;SDS011;7432;48.728;9.154;2023-06-14T05:18:37;8.73;;;7.93;;
14688;SDS011;7432;48.728;9.154;2023-06-14T05:21:05;9.53;;;8.73;;
14688;SDS011;7432;48.728;9.154;2023-06-14T05:23:33;9.30;;;8.40;;
14688;SDS011;7432;48.728;9.154;2023-06-14T05:25:59;8.97;;;8.27;;
14688;SDS011;7432;48.728;9.154;2023-06-14T05:28:27;9.30;;;8.47;;
14688;SDS011;7432;48.728;9.154;2023-06-14T05:30:54;8.87;;;8.10;;
14688;SDS011;7432;48.728;9.154;2023-06-14T05:33:20;10.40;;;9.30;;
14688;SDS011;7432;48.728;9.154;2023-06-14T05:35:46;9.47;;;8.67;;
14688;SDS011;7432;48.728;9.154;2023-06-14T05:38:13;11.53;;;8.17;;
14688;SDS011;7432;48.728;9.154;2023-06-14T05:40:40;8.90;;;8.20;;
14688;SDS011;7432;48.728;9.154;2023-06-14T05:43:07;9.70;;;9.00;;
14688;SDS011;7432;48.728;9.154;2023-06-14T05:45:33;9.00;;;8.30;;
14688;SDS011;7432;48.728;9.154;2023-06-14T05:48:00;9.03;;;8.17;;
14688;SDS011;7432;48.728;9.154;2023-06-14T05:50:26;9.23;;;8.37;;
14688;SDS011;7432;48.728;9.154;2023-06-14T05:52:53;9.37;;;8.57;;
14688;SDS011;7432;48.728;9.154;2023-06-14T05:55:19;9.03;;;8.23;;
14688;SDS011;7432;48.728;9.154;2023-06-14T05:57:47;9.80;;;8.90;;
14688;SDS011;7432;48.728;9.154;2023-06-14T06:00:14;9.50;;;8.70;;
14688;SDS011;7432;48.728;9.154;2023-06-14T06:02:42;10.03;;;9.13;;
14688;SDS011;7432;48.728;9.154;2023-06-14T06:05:09;9.60;;;8.80;;
14688;SDS011;7432;48.728;9.154;2023-06-14T06:07:35;9.93;;;9.13;;
14688;SDS011;7432;48.728;9.154;2023-06-14T06:10:02;10.07;;;9.17;;
14688;SDS011;7432;48.728;9.154;2023-06-14T06:12:29;9.50;;;8.80;;
14688;SDS011;7432;48.728;9.154;2023-06-14T06:14:57;10.17;;;8.57;;
14688;SDS011;7432;48.728;9.154;2023-06-14T06:17:24;10.98;;;9.10;;
14688;SDS011;7432;48.728;9.154;2023-06-14T06:19:50;10.13;;;9.30;;
14688;SDS011;7432;48.728;9.154;2023-06-14T06:22:17;9.15;;;8.43;;
14688;SDS011;7432;48.728;9.154;2023-06-14T06:24:43;8.82;;;8.23;;
14688;SDS011;7432;48.728;9.154;2023-06-14T06:27:09;11.27;;;8.77;;
14688;SDS011;7432;48.728;9.154;2023-06-14T06:29:37;10.65;;;9.55;;
14688;SDS011;7432;48.728;9.154;2023-06-14T06:32:05;9.43;;;8.52;;
14688;SDS011;7432;48.728;9.154;2023-06-14T06:34:33;10.15;;;9.20;;
14688;SDS011;7432;48.728;9.154;2023-06-14T06:37:00;9.77;;;9.07;;
14688;SDS011;7432;48.728;9.154;2023-06-14T06:39:27;9.85;;;9.15;;
14688;SDS011;7432;48.728;9.154;2023-06-14T06:41:53;10.10;;;9.40;;
14688;SDS011;7432;48.728;9.154;2023-06-14T06:44:19;10.95;;;9.98;;
14688;SDS011;7432;48.728;9.154;2023-06-14T06:46:46;10.60;;;9.90;;
14688;SDS011;7432;48.728;9.154;2023-06-14T06:49:13;10.18;;;9.38;;
14688;SDS011;7432;48.728;9.154;2023-06-14T06:51:40;10.77;;;9.90;;
14688;SDS011;7432;48.728;9.154;2023-06-14T06:54:08;10.57;;;9.88;;
14688;SDS011;7432;48.728;9.154;2023-06-14T06:56:34;10.63;;;9.93;;
14688;SDS011;7432;48.728;9.154;2023-06-14T06:59:01;10.30;;;9.70;;
14688;SDS011;7432;48.728;9.154;2023-06-14T07:01:27;9.68;;;9.00;;
14688;SDS011;7432;48.728;9.154;2023-06-14T07:03:54;10.05;;;9.35;;
14688;SDS011;7432;48.728;9.154;2023-06-14T07:06:21;9.80;;;9.00;;
14688;SDS011;7432;48.728;9.154;2023-06-14T07:08:52;10.48;;;9.88;;
14688;SDS011;7432;48.728;9.154;2023-06-14T07:11:18;10.15;;;9.52;;
14688;SDS011;7432;48.728;9.154;2023-06-14T07:13:45;10.90;;;9.15;;
14688;SDS011;7432;48.728;9.154;2023-06-14T07:16:11;10.30;;;9.40;;
14688;SDS011;7432;48.728;9.154;2023-06-14T07:18:37;10.80;;;10.00;;
14688;SDS011;7432;48.728;9.154;2023-06-14T07:21:04;10.93;;;10.32;;
14688;SDS011;7432;48.728;9.154;2023-06-14T07:23:31;10.98;;;10.18;;
14688;SDS011;7432;48.728;9.154;2023-06-14T07:25:58;11.00;;;10.20;;
14688;SDS011;7432;48.728;9.154;2023-06-14T07:28:24;11.25;;;10.48;;
14688;SDS011;7432;48.728;9.154;2023-06-14T07:30:50;10.73;;;10.02;;
14688;SDS011;7432;48.728;9.154;2023-06-14T07:33:17;11.30;;;10.38;;
14688;SDS011;7432;48.728;9.154;2023-06-14T07:35:43;11.77;;;10.90;;
14688;SDS011;7432;48.728;9.154;2023-06-14T07:38:10;11.07;;;10.18;;
14688;SDS011;7432;48.728;9.154;2023-06-14T07:40:38;11.40;;;10.50;;
14688;SDS011;7432;48.728;9.154;2023-06-14T07:43:04;11.50;;;10.48;;
14688;SDS011;7432;48.728;9.154;2023-06-14T07:45:31;11.32;;;10.38;;
14688;SDS011;7432;48.728;9.154;2023-06-14T07:47:57;11.23;;;10.43;;
14688;SDS011;7432;48.728;9.154;2023-06-14T07:50:23;10.63;;;9.88;;
14688;SDS011;7432;48.728;9.154;2023-06-14T07:52:50;10.95;;;10.20;;
14688;SDS011;7432;48.728;9.154;2023-06-14T07:55:16;11.02;;;10.23;;
14688;SDS011;7432;48.728;9.154;2023-06-14T07:57:44;11.25;;;10.32;;
14688;SDS011;7432;48.728;9.154;2023-06-14T08:00:11;12.23;;;11.40;;
14688;SDS011;7432;48.728;9.154;2023-06-14T08:02:40;11.85;;;11.00;;
14688;SDS011;7432;48.728;9.154;2023-06-14T08:05:07;11.68;;;10.77;;
14688;SDS011;7432;48.728;9.154;2023-06-14T08:07:35;11.38;;;10.48;;
14688;SDS011;7432;48.728;9.154;2023-06-14T08:10:01;11.38;;;10.52;;
14688;SDS011;7432;48.728;9.154;2023-06-14T08:12:28;11.52;;;10.40;;
14688;SDS011;7432;48.728;9.154;2023-06-14T08:14:56;11.43;;;10.40;;
14688;SDS011;7432;48.728;9.154;2023-06-14T08:17:22;11.20;;;10.50;;
14688;SDS011;7432;48.728;9.154;2023-06-14T08:19:48;10.98;;;10.07;;
14688;SDS011;7432;48.728;9.154;2023-06-14T08:22:15;10.57;;;9.77;;
14688;SDS011;7432;48.728;9.154;2023-06-14T08:24:43;10.57;;;9.70;;
14688;SDS011;7432;48.728;9.154;2023-06-14T08:27:09;10.25;;;9.63;;
14688;SDS011;7432;48.728;9.154;2023-06-14T08:29:36;11.00;;;10.30;;
14688;SDS011;7432;48.728;9.154;2023-06-14T08:32:05;10.57;;;9.77;;
14688;SDS011;7432;48.728;9.154;2023-06-14T08:34:32;11.38;;;10.65;;
14688;SDS011;7432;48.728;9.154;2023-06-14T08:36:59;11.43;;;10.63;;
14688;SDS011;7432;48.728;9.154;2023-06-14T08:39:25;11.20;;;10.40;;
14688;SDS011;7432;48.728;9.154;2023-06-14T08:41:51;12.93;;;10.93;;
14688;SDS011;7432;48.728;9.154;2023-06-14T08:44:18;11.00;;;10.20;;
14688;SDS011;7432;48.728;9.154;2023-06-14T08:46:45;11.07;;;10.05;;
14688;SDS011;7432;48.728;9.154;2023-06-14T08:49:15;10.93;;;10.23;;
14688;SDS011;7432;48.728;9.154;2023-06-14T08:51:43;11.68;;;10.20;;
14688;SDS011;7432;48.728;9.154;2023-06-14T08:54:10;10.93;;;10.02;;
14688;SDS011;7432;48.728;9.154;2023-06-14T08:56:37;10.80;;;10.10;;
14688;SDS011;7432;48.728;9.154;2023-06-14T08:59:06;11.40;;;10.15;;
14688;SDS011;7432;48.728;9.154;2023-06-14T09:01:34;11.48;;;10.60;;
14688;SDS011;7432;48.728;9.154;2023-06-14T09:04:00;10.82;;;10.13;;
14688;SDS011;7432;48.728;9.154;2023-06-14T09:06:31;11.13;;;10.30;;
14688;SDS011;7432;48.728;9.154;2023-06-14T09:08:58;11.18;;;10.10;;
14688;SDS011;7432;48.728;9.154;2023-06-14T09:11:24;10.73;;;9.90;;
14688;SDS011;7432;48.728;9.154;2023-06-14T09:13:51;11.18;;;10.10;;
14688;SDS011;7432;48.728;9.154;2023-06-14T09:16:17;11.30;;;10.25;;
14688;SDS011;7432;48.728;9.154;2023-06-14T09:18:44;11.00;;;9.93;;
14688;SDS011;7432;48.728;9.154;2023-06-14T09:21:13;10.60;;;9.90;;
14688;SDS011;7432;48.728;9.154;2023-06-14T09:23:43;11.25;;;10.32;;
14688;SDS011;7432;48.728;9.154;2023-06-14T09:26:11;10.98;;;9.90;;
14688;SDS011;7432;48.728;9.154;2023-06-14T09:28:40;10.43;;;9.68;;
14688;SDS011;7432;48.728;9.154;2023-06-14T09:31:08;11.35;;;10.27;;
14688;SDS011;7432;48.728;9.154;2023-06-14T09:33:34;10.98;;;10.18;;
14688;SDS011;7432;48.728;9.154;2023-06-14T09:36:01;10.88;;;10.18;;
14688;SDS011;7432;48.728;9.154;2023-06-14T09:38:28;11.35;;;10.50;;
14688;SDS011;7432;48.728;9.154;2023-06-14T09:40:57;11.05;;;10.25;;
14688;SDS011;7432;48.728;9.154;2023-06-14T09:43:24;11.60;;;10.63;;
14688;SDS011;7432;48.728;9.154;2023-06-14T09:45:52;10.88;;;10.07;;
14688;SDS011;7432;48.728;9.154;2023-06-14T09:48:20;11.10;;;10.25;;
14688;SDS011;7432;48.728;9.154;2023-06-14T09:50:46;10.73;;;10.02;;
14688;SDS011;7432;48.728;9.154;2023-06-14T09:53:15;10.13;;;9.43;;
14688;SDS011;7432;48.728;9.154;2023-06-14T09:55:46;10.43;;;9.77;;
14688;SDS011;7432;48.728;9.154;2023-06-14T09:58:16;10.38;;;9.48;;
14688;SDS011;7432;48.728;9.154;2023-06-14T10:00:46;9.93;;;9.15;;
14688;SDS011;7432;48.728;9.154;2023-06-14T10:03:18;10.38;;;9.50;;
14688;SDS011;7432;48.728;9.154;2023-06-14T10:05:48;10.50;;;9.77;;
14688;SDS011;7432;48.728;9.154;2023-06-14T10:08:17;11.02;;;9.30;;
14688;SDS011;7432;48.728;9.154;2023-06-14T10:10:45;9.93;;;9.23;;
14688;SDS011;7432;48.728;9.154;2023-06-14T10:13:11;9.88;;;9.27;;
14688;SDS011;7432;48.728;9.154;2023-06-14T10:15:42;10.95;;;9.90;;
14688;SDS011;7432;48.728;9.154;2023-06-14T10:18:18;10.93;;;10.05;;
14688;SDS011;7432;48.728;9.154;2023-06-14T10:20:51;9.88;;;9.10;;
14688;SDS011;7432;48.728;9.154;2023-06-14T10:23:25;9.85;;;9.10;;
14688;SDS011;7432;48.728;9.154;2023-06-14T10:25:55;10.40;;;9.60;;
14688;SDS011;7432;48.728;9.154;2023-06-14T10:28:24;8.77;;;8.23;;
14688;SDS011;7432;48.728;9.154;2023-06-14T10:31:06;9.80;;;8.90;;
14688;SDS011;7432;48.728;9.154;2023-06-14T10:33:34;10.18;;;9.10;;
14688;SDS011;7432;48.728;9.154;2023-06-14T10:36:08;9.65;;;9.05;;
14688;SDS011;7432;48.728;9.154;2023-06-14T10:38:54;10.48;;;9.77;;
14688;SDS011;7432;48.728;9.154;2023-06-14T10:41:23;10.20;;;9.45;;
14688;SDS011;7432;48.728;9.154;2023-06-14T10:43:50;10.52;;;9.45;;
14688;SDS011;7432;48.728;9.154;2023-06-14T10:46:18;10.40;;;9.40;;
14688;SDS011;7432;48.728;9.154;2023-06-14T10:48:48;11.23;;;10.27;;
14688;SDS011;7432;48.728;9.154;2023-06-14T10:51:15;10.73;;;9.75;;
14688;SDS011;7432;48.728;9.154;2023-06-14T10:53:46;11.30;;;10.30;;
14688;SDS011;7432;48.728;9.154;2023-06-14T10:56:23;10.23;;;9.43;;
14688;SDS011;7432;48.728;9.154;2023-06-14T10:58:53;10.60;;;9.90;;
14688;SDS011;7432;48.728;9.154;2023-06-14T11:01:23;11.30;;;10.13;;
14688;SDS011;7432;48.728;9.154;2023-06-14T11:04:00;11.10;;;10.10;;
14688;SDS011;7432;48.728;9.154;2023-06-14T11:06:36;3.03;;;2.70;;
14688;SDS011;7432;48.728;9.154;2023-06-14T11:12:19;4.20;;;2.60;;
14688;SDS011;7432;48.728;9.154;2023-06-14T11:14:47;3.47;;;2.90;;
14688;SDS011;7432;48.728;9.154;2023-06-14T11:17:15;4.95;;;2.90;;
14688;SDS011;7432;48.728;9.154;2023-06-14T11:19:41;6.35;;;2.85;;
14688;SDS011;7432;48.728;9.154;2023-06-14T11:22:08;10.65;;;9.73;;
14688;SDS011;7432;48.728;9.154;2023-06-14T11:24:34;10.65;;;9.63;;
14688;SDS011;7432;48.728;9.154;2023-06-14T11:27:01;9.82;;;9.00;;
14688;SDS011;7432;48.728;9.154;2023-06-14T11:29:28;10.93;;;10.00;;
14688;SDS011;7432;48.728;9.154;2023-06-14T11:31:55;11.25;;;10.10;;
14688;SDS011;7432;48.728;9.154;2023-06-14T11:34:24;10.45;;;9.73;;
14688;SDS011;7432;48.728;9.154;2023-06-14T11:36:51;10.77;;;9.80;;
14688;SDS011;7432;48.728;9.154;2023-06-14T11:39:17;11.05;;;10.25;;
14688;SDS011;7432;48.728;9.154;2023-06-14T11:41:50;10.48;;;9.77;;
14688;SDS011;7432;48.728;9.154;2023-06-14T11:44:17;10.15;;;9.48;;
14688;SDS011;7432;48.728;9.154;2023-06-14T11:46:43;10.82;;;10.02;;
14688;SDS011;7432;48.728;9.154;2023-06-14T11:49:10;10.85;;;10.05;;
14688;SDS011;7432;48.728;9.154;2023-06-14T11:51:38;10.05;;;9.30;;
14688;SDS011;7432;48.728;9.154;2023-06-14T11:54:05;10.65;;;10.05;;
14688;SDS011;7432;48.728;9.154;2023-06-14T11:56:32;10.50;;;9.80;;
14688;SDS011;7432;48.728;9.154;2023-06-14T11:58:59;10.23;;;9.52;;
14688;SDS011;7432;48.728;9.154;2023-06-14T12:01:25;12.27;;;11.20;;
14688;SDS011;7432;48.728;9.154;2023-06-14T12:03:52;11.50;;;10.70;;
14688;SDS011;7432;48.728;9.154;2023-06-14T12:06:25;9.75;;;8.85;;
14688;SDS011;7432;48.728;9.154;2023-06-14T12:08:56;5.18;;;2.90;;
14688;SDS011;7432;48.728;9.154;2023-06-14T12:11:23;8.60;;;2.75;;
14688;SDS011;7432;48.728;9.154;2023-06-14T12:13:50;8.10;;;2.70;;
14688;SDS011;7432;48.728;9.154;2023-06-14T12:16:16;5.35;;;2.65;;
14688;SDS011;7432;48.728;9.154;2023-06-14T12:18:42;5.35;;;2.60;;
14688;SDS011;7432;48.728;9.154;2023-06-14T12:21:10;5.55;;;3.08;;
14688;SDS011;7432;48.728;9.154;2023-06-14T12:23:42;5.20;;;3.60;;
14688;SDS011;7432;48.728;9.154;2023-06-14T12:26:11;4.05;;;3.28;;
14688;SDS011;7432;48.728;9.154;2023-06-14T12:28:39;5.82;;;5.32;;
14688;SDS011;7432;48.728;9.154;2023-06-14T12:31:07;6.13;;;4.28;;
14688;SDS011;7432;48.728;9.154;2023-06-14T12:33:33;4.05;;;3.22;;
14688;SDS011;7432;48.728;9.154;2023-06-14T12:36:02;4.03;;;3.72;;
14688;SDS011;7432;48.728;9.154;2023-06-14T12:38:29;4.28;;;3.90;;
14688;SDS011;7432;48.728;9.154;2023-06-14T12:40:56;4.47;;;2.70;;
14688;SDS011;7432;48.728;9.154;2023-06-14T12:43:23;8.32;;;3.78;;
14688;SDS011;7432;48.728;9.154;2023-06-14T12:45:50;3.00;;;2.55;;
14688;SDS011;7432;48.728;9.154;2023-06-14T12:48:16;5.43;;;2.70;;
14688;SDS011;7432;48.728;9.154;2023-06-14T12:50:43;3.75;;;2.58;;
14688;SDS011;7432;48.728;9.154;2023-06-14T12:53:09;2.97;;;2.35;;
14688;SDS011;7432;48.728;9.154;2023-06-14T12:55:35;6.55;;;2.50;;
14688;SDS011;7432;48.728;9.154;2023-06-14T12:58:02;3.20;;;2.90;;
14688;SDS011;7432;48.728;9.154;2023-06-14T13:00:30;4.70;;;3.13;;
14688;SDS011;7432;48.728;9.154;2023-06-14T13:02:56;4.47;;;2.42;;
14688;SDS011;7432;48.728;9.154;2023-06-14T13:05:23;4.03;;;2.55;;
14688;SDS011;7432;48.728;9.154;2023-06-14T13:07:49;3.83;;;2.50;;
14688;SDS011;7432;48.728;9.154;2023-06-14T13:10:16;4.10;;;2.35;;
14688;SDS011;7432;48.728;9.154;2023-06-14T13:12:43;3.85;;;3.08;;
14688;SDS011;7432;48.728;9.154;2023-06-14T13:15:10;3.65;;;2.60;;
14688;SDS011;7432;48.728;9.154;2023-06-14T13:17:37;3.90;;;2.50;;
14688;SDS011;7432;48.728;9.154;2023-06-14T13:20:04;3.58;;;3.08;;
14688;SDS011;7432;48.728;9.154;2023-06-14T13:22:31;5.72;;;3.28;;
14688;SDS011;7432;48.728;9.154;2023-06-14T13:24:58;6.03;;;3.58;;
14688;SDS011;7432;48.728;9.154;2023-06-14T13:27:25;5.15;;;4.00;;
14688;SDS011;7432;48.728;9.154;2023-06-14T13:29:51;6.93;;;3.60;;
14688;SDS011;7432;48.728;9.154;2023-06-14T13:32:18;5.90;;;3.95;;
14688;SDS011;7432;48.728;9.154;2023-06-14T13:34:46;5.38;;;4.28;;
14688;SDS011;7432;48.728;9.154;2023-06-14T13:37:12;7.28;;;5.30;;
14688;SDS011;7432;48.728;9.154;2023-06-14T13:39:39;5.25;;;3.80;;
14688;SDS011;7432;48.728;9.154;2023-06-14T13:42:05;3.92;;;3.53;;
14688;SDS011;7432;48.728;9.154;2023-06-14T13:44:32;4.57;;;3.88;;
14688;SDS011;7432;48.728;9.154;2023-06-14T13:46:59;5.43;;;3.00;;
14688;SDS011;7432;48.728;9.154;2023-06-14T13:49:25;4.22;;;3.25;;
14688;SDS011;7432;48.728;9.154;2023-06-14T13:51:53;6.63;;;3.00;;
14688;SDS011;7432;48.728;9.154;2023-06-14T13:54:20;3.28;;;2.60;;
14688;SDS011;7432;48.728;9.154;2023-06-14T13:56:47;3.15;;;2.80;;
14688;SDS011;7432;48.728;9.154;2023-06-14T13:59:13;3.30;;;2.55;;
14688;SDS011;7432;48.728;9.154;2023-06-14T14:01:41;4.95;;;2.50;;
14688;SDS011;7432;48.728;9.154;2023-06-14T14:04:07;4.82;;;2.85;;
14688;SDS011;7432;48.728;9.154;2023-06-14T14:06:34;4.70;;;2.58;;
14688;SDS011;7432;48.728;9.154;2023-06-14T14:09:02;5.30;;;2.60;;
14688;SDS011;7432;48.728;9.154;2023-06-14T14:11:29;4.57;;;2.65;;
14688;SDS011;7432;48.728;9.154;2023-06-14T14:13:58;4.50;;;2.60;;
14688;SDS011;7432;48.728;9.154;2023-06-14T14:16:24;4.50;;;2.88;;
14688;SDS011;7432;48.728;9.154;2023-06-14T14:18:51;6.20;;;2.47;;
14688;SDS011;7432;48.728;9.154;2023-06-14T14:21:18;3.60;;;2.38;;
14688;SDS011;7432;48.728;9.154;2023-06-14T14:23:44;3.92;;;2.38;;
14688;SDS011;7432;48.728;9.154;2023-06-14T14:26:12;3.97;;;2.80;;
14688;SDS011;7432;48.728;9.154;2023-06-14T14:28:39;4.15;;;2.95;;
14688;SDS011;7432;48.728;9.154;2023-06-14T14:31:05;5.22;;;3.03;;
14688;SDS011;7432;48.728;9.154;2023-06-14T14:33:31;5.85;;;2.80;;
14688;SDS011;7432;48.728;9.154;2023-06-14T14:35:59;6.10;;;2.65;;
14688;SDS011;7432;48.728;9.154;2023-06-14T14:38:28;4.28;;;2.78;;
14688;SDS011;7432;48.728;9.154;2023-06-14T14:40:55;5.30;;;2.83;;
14688;SDS011;7432;48.728;9.154;2023-06-14T14:43:22;5.70;;;2.80;;
14688;SDS011;7432;48.728;9.154;2023-06-14T14:45:49;4.15;;;2.17;;
14688;SDS011;7432;48.728;9.154;2023-06-14T14:48:15;4.88;;;2.80;;
14688;SDS011;7432;48.728;9.154;2023-06-14T14:50:42;4.07;;;2.78;;
14688;SDS011;7432;48.728;9.154;2023-06-14T14:53:08;5.72;;;2.78;;
14688;SDS011;7432;48.728;9.154;2023-06-14T14:55:34;5.60;;;2.75;;
14688;SDS011;7432;48.728;9.154;2023-06-14T14:58:01;7.78;;;2.60;;
14688;SDS011;7432;48.728;9.154;2023-06-14T15:00:30;3.70;;;2.88;;